createdAt,value
2022-11-17T13:34:30.426Z,98880.75
2022-11-17T13:36:58.895Z,98878.03
2022-11-17T13:39:27.900Z,98879.22
2022-11-17T13:41:55.648Z,98876.84
2022-11-17T13:44:28.348Z,98883.72
2022-11-17T13:46:55.340Z,98881.81
2022-11-17T13:49:51.034Z,98879.34
2022-11-17T13:52:43.622Z,98876.84
2022-11-17T13:55:18.770Z,98879.09
2022-11-17T13:58:06.873Z,98880.06
2022-11-17T14:00:34.454Z,98882.19
2022-11-17T14:03:05.973Z,98887.50
2022-11-17T14:05:33.764Z,98884.19
2022-11-17T14:08:22.657Z,98882.53
2022-11-17T14:10:49.332Z,98879.94
2022-11-17T14:13:22.908Z,98885.13
2022-11-17T14:15:58.949Z,98880.16
2022-11-17T14:26:40.631Z,98888.38
2022-11-17T14:29:11.248Z,98889.97
2022-11-17T14:34:05.276Z,98886.34
2022-11-17T14:36:32.672Z,98897.44
2022-11-17T14:39:01.188Z,98903.38
2022-11-17T14:41:27.754Z,98893.06
2022-11-17T14:43:54.221Z,98898.50
2022-11-17T14:46:25.922Z,98900.84
2022-11-17T14:48:53.595Z,98905.47
2022-11-17T14:51:20.776Z,98898.72
2022-11-17T14:53:47.976Z,98896.47
2022-11-17T14:56:17.852Z,98899.31
2022-11-17T14:58:45.165Z,98897.78
2022-11-17T15:01:15.552Z,98908.28
2022-11-17T15:03:42.754Z,98916.19
2022-11-17T15:06:12.122Z,98912.75
2022-11-17T15:08:41.771Z,98910.41
2022-11-17T15:11:15.322Z,98915.59
2022-11-17T15:13:42.982Z,98913.13
2022-11-17T15:16:10.458Z,98913.94
2022-11-17T15:18:37.108Z,98913.13
2022-11-17T15:21:08.403Z,98923.63
2022-11-17T15:23:38.338Z,98920.19
2022-11-17T15:26:11.424Z,98927.88
2022-11-17T15:28:37.868Z,98938.28
2022-11-17T15:31:10.840Z,98935.69
2022-11-17T15:33:39.445Z,98941.84
2022-11-17T15:36:07.258Z,98940.88
2022-11-17T15:38:33.902Z,98943.56
2022-11-17T15:41:00.370Z,98947.94
2022-11-17T15:43:30.801Z,98940.28
2022-11-17T15:46:06.288Z,98943.00
2022-11-17T15:48:34.601Z,98943.13
2022-11-17T15:51:05.495Z,98948.44
2022-11-17T15:53:35.175Z,98948.53
2022-11-17T15:56:23.210Z,98950.41
2022-11-17T15:58:55.835Z,98945.22
2022-11-17T16:01:29.199Z,98958.22
2022-11-17T16:04:01.582Z,98964.94
2022-11-17T16:06:29.842Z,98962.34
2022-11-17T16:08:57.581Z,98964.03
2022-11-17T16:11:25.807Z,98970.75
2022-11-17T16:13:56.728Z,98975.13
2022-11-17T16:16:25.363Z,98972.66
2022-11-17T16:18:52.068Z,98973.69
2022-11-17T16:21:18.930Z,98973.56
2022-11-17T16:23:50.750Z,98980.44
2022-11-17T16:26:19.293Z,98984.69
2022-11-17T16:28:48.898Z,98984.69
2022-11-17T16:31:20.955Z,98984.91
2022-11-17T16:33:52.914Z,98985.72
2022-11-17T16:36:21.543Z,98979.72
2022-11-17T16:39:00.775Z,98982.22
2022-11-17T16:41:31.767Z,98993.44
2022-11-17T16:43:58.745Z,98996.38
2022-11-17T16:46:29.163Z,98990.47
2022-11-17T16:48:56.898Z,98998.25
2022-11-17T16:51:23.681Z,98997.63
2022-11-17T16:54:04.990Z,98998.69
2022-11-17T16:56:32.104Z,98992.75
2022-11-17T16:58:59.254Z,99002.44
2022-11-17T17:01:30.450Z,99001.03
2022-11-17T17:03:59.075Z,98998.31
2022-11-17T17:06:26.308Z,99000.09
2022-11-17T17:08:54.825Z,99003.63
2022-11-17T17:11:21.852Z,99012.34
2022-11-17T17:13:48.702Z,99014.94
2022-11-17T17:16:17.561Z,99013.19
2022-11-17T17:18:44.489Z,99016.81
2022-11-17T17:21:17.787Z,99017.66
2022-11-17T17:23:45.641Z,99022.13
2022-11-17T17:26:16.759Z,99021.50
2022-11-17T17:28:47.233Z,99025.88
2022-11-17T17:31:20.774Z,99033.66
2022-11-17T17:33:48.926Z,99031.19
2022-11-17T17:36:18.136Z,99032.13
2022-11-17T17:38:48.826Z,99031.31
2022-11-17T17:41:19.711Z,99031.44
2022-11-17T17:43:47.565Z,99033.28
2022-11-17T17:46:17.739Z,99032.56
2022-11-17T17:48:45.654Z,99036.00
2022-11-17T17:51:15.494Z,99037.06
2022-11-17T17:53:42.277Z,99045.28
2022-11-17T17:56:11.660Z,99040.41
2022-11-17T17:58:42.311Z,99049.25
2022-11-17T18:01:14.402Z,99054.56
2022-11-17T18:03:48.332Z,99058.09
2022-11-17T18:06:17.349Z,99059.84
2022-11-17T18:08:43.886Z,99066.06
2022-11-17T18:11:13.321Z,99066.91
2022-11-17T18:13:42.371Z,99073.25
2022-11-17T18:16:14.869Z,99071.16
2022-11-17T18:18:42.350Z,99072.84
2022-11-17T18:21:14.073Z,99074.69
2022-11-17T18:23:41.552Z,99067.72
2022-11-17T18:26:18.327Z,99084.06
2022-11-17T18:28:54.377Z,99079.69
2022-11-17T18:31:22.938Z,99084.66
2022-11-17T18:33:57.324Z,99078.53
2022-11-17T18:36:25.063Z,99087.13
2022-11-17T18:38:52.809Z,99083.63
2022-11-17T18:41:20.826Z,99087.78
2022-11-17T18:43:48.082Z,99094.63
2022-11-17T18:46:21.397Z,99091.31
2022-11-17T18:48:49.887Z,99096.28
2022-11-17T18:51:19.992Z,99096.28
2022-11-17T18:53:48.614Z,99099.59
2022-11-17T18:56:17.548Z,99100.53
2022-11-17T18:58:44.218Z,99102.28
2022-11-17T19:01:14.780Z,99100.66
2022-11-17T19:03:42.831Z,99108.53
2022-11-17T19:06:10.241Z,99113.94
2022-11-17T19:08:37.701Z,99120.81
2022-11-17T19:11:06.574Z,99112.28
2022-11-17T19:13:35.581Z,99129.53
2022-11-17T19:16:15.193Z,99124.31
2022-11-17T19:18:42.854Z,99128.81
2022-11-17T19:21:12.075Z,99133.06
2022-11-17T19:23:49.587Z,99132.22
2022-11-17T19:26:25.133Z,99138.25
2022-11-17T19:28:59.216Z,99142.94
2022-11-17T19:31:26.541Z,99138.66
2022-11-17T19:33:53.340Z,99142.22
2022-11-17T19:36:22.605Z,99148.56
2022-11-17T19:38:51.168Z,99150.63
2022-11-17T19:41:20.553Z,99161.63
2022-11-17T19:43:47.242Z,99165.28
2022-11-17T19:46:15.978Z,99167.16
2022-11-17T19:48:43.831Z,99171.50
2022-11-17T19:51:25.203Z,99170.69
2022-11-17T19:53:54.821Z,99175.88
2022-11-17T19:56:22.521Z,99178.56
2022-11-17T19:58:49.857Z,99180.53
2022-11-17T20:01:18.817Z,99181.47
2022-11-17T20:03:46.305Z,99186.81
2022-11-17T20:06:17.502Z,99178.31
2022-11-17T20:08:44.844Z,99186.34
2022-11-17T20:11:33.398Z,99201.16
2022-11-17T20:13:59.850Z,99192.75
2022-11-17T20:16:27.392Z,99202.41
2022-11-17T20:18:56.361Z,99207.59
2022-11-17T20:21:23.779Z,99211.09
2022-11-17T20:23:50.875Z,99216.31
2022-11-17T20:26:23.347Z,99218.19
2022-11-17T20:28:51.141Z,99219.22
2022-11-17T20:31:21.839Z,99217.75
2022-11-17T20:33:48.888Z,99216.81
2022-11-17T20:36:20.426Z,99222.22
2022-11-17T20:38:51.663Z,99223.97
2022-11-17T20:41:20.881Z,99224.16
2022-11-17T20:43:49.070Z,99224.16
2022-11-17T20:46:15.491Z,99221.66
2022-11-17T20:48:42.342Z,99233.19
2022-11-17T20:51:17.094Z,99231.50
2022-11-17T20:53:44.180Z,99237.63
2022-11-17T20:56:12.417Z,99239.50
2022-11-17T20:58:39.300Z,99251.66
2022-11-17T21:01:14.563Z,99257.03
2022-11-17T21:03:41.590Z,99255.34
2022-11-17T21:06:08.376Z,99254.63
2022-11-17T21:08:37.845Z,99259.09
2022-11-17T21:11:08.079Z,99266.16
2022-11-17T21:13:36.161Z,99268.09
2022-11-17T21:16:05.706Z,99268.19
2022-11-17T21:18:32.856Z,99269.97
2022-11-17T21:21:00.256Z,99271.72
2022-11-17T21:23:27.589Z,99274.31
2022-11-17T21:25:54.525Z,99270.97
2022-11-17T21:28:21.038Z,99273.50
2022-11-17T21:30:47.618Z,99279.56
2022-11-17T21:33:14.384Z,99282.00
2022-11-17T21:35:40.900Z,99283.22
2022-11-17T21:38:07.395Z,99281.44
2022-11-17T21:40:34.155Z,99284.88
2022-11-17T21:43:00.706Z,99283.59
2022-11-17T21:45:27.240Z,99290.81
2022-11-17T21:47:59.231Z,99295.00
2022-11-17T21:50:26.101Z,99289.00
2022-11-17T21:52:52.550Z,99296.66
2022-11-17T21:55:19.108Z,99292.50
2022-11-17T21:57:45.529Z,99292.50
2022-11-17T22:00:12.868Z,99288.34
2022-11-17T22:02:39.566Z,99290.75
2022-11-17T22:05:06.535Z,99297.69
2022-11-17T22:07:33.052Z,99298.59
2022-11-17T22:09:59.538Z,99300.38
2022-11-17T22:12:27.437Z,99298.69
2022-11-17T22:14:53.932Z,99295.28
2022-11-17T22:17:20.360Z,99297.16
2022-11-17T22:19:46.796Z,99307.63
2022-11-17T22:22:13.289Z,99306.69
2022-11-17T22:24:40.185Z,99304.94
2022-11-17T22:27:07.029Z,99310.94
2022-11-17T22:29:33.588Z,99307.63
2022-11-17T22:32:00.163Z,99307.78
2022-11-17T22:34:26.652Z,99316.50
2022-11-17T22:36:53.147Z,99322.72
2022-11-17T22:39:20.033Z,99322.63
2022-11-17T22:41:46.630Z,99327.81
2022-11-17T22:44:14.599Z,99328.84
2022-11-17T22:46:43.099Z,99333.91
2022-11-17T22:49:10.323Z,99333.25
2022-11-17T22:51:55.208Z,99340.22
2022-11-17T22:54:21.686Z,99343.84
2022-11-17T22:56:48.518Z,99355.03
2022-11-17T22:59:15.286Z,99348.19
2022-11-17T23:01:41.930Z,99355.41
2022-11-17T23:04:08.435Z,99360.78
2022-11-17T23:06:35.041Z,99359.75
2022-11-17T23:09:01.512Z,99358.66
2022-11-17T23:11:37.562Z,99355.59
2022-11-17T23:14:09.848Z,99357.88
2022-11-17T23:16:37.488Z,99358.25
2022-11-17T23:19:04.786Z,99357.88
2022-11-17T23:21:31.277Z,99362.06
2022-11-17T23:23:57.947Z,99365.75
2022-11-17T23:26:24.469Z,99364.66
2022-11-17T23:28:51.209Z,99365.59
2022-11-17T23:31:18.002Z,99364.66
2022-11-17T23:33:46.903Z,99360.41
2022-11-17T23:36:21.822Z,99366.13
2022-11-17T23:38:50.257Z,99365.03
2022-11-17T23:41:19.405Z,99361.41
2022-11-17T23:43:46.285Z,99369.75
2022-11-17T23:46:15.333Z,99367.88
2022-11-17T23:48:42.828Z,99375.56
2022-11-17T23:51:15.096Z,99372.97
2022-11-17T23:53:42.389Z,99379.84
2022-11-17T23:56:10.297Z,99372.91
2022-11-17T23:58:37.088Z,99385.94
